sensor_id;sensor_type;location;lat;lon;timestamp;P1;durP1;ratioP1;P2;durP2;ratioP2
39176;SDS011;24904;52.208;21.192;2023-07-09T00:00:26;7.70;;;5.10;;
39176;SDS011;24904;52.208;21.192;2023-07-09T00:05:29;12.70;;;5.90;;
39176;SDS011;24904;52.208;21.192;2023-07-09T00:10:32;8.00;;;5.60;;
39176;SDS011;24904;52.208;21.192;2023-07-09T00:15:36;13.20;;;5.70;;
39176;SDS011;24904;52.208;21.192;2023-07-09T00:20:39;10.60;;;6.00;;
39176;SDS011;24904;52.208;21.192;2023-07-09T00:25:44;9.80;;;5.70;;
39176;SDS011;24904;52.208;21.192;2023-07-09T00:30:48;11.90;;;6.10;;
39176;SDS011;24904;52.208;21.192;2023-07-09T00:35:51;8.40;;;5.70;;
39176;SDS011;24904;52.208;21.192;2023-07-09T00:41:00;10.50;;;6.20;;
39176;SDS011;24904;52.208;21.192;2023-07-09T00:46:14;8.10;;;5.50;;
39176;SDS011;24904;52.208;21.192;2023-07-09T00:51:40;10.30;;;5.60;;
39176;SDS011;24904;52.208;21.192;2023-07-09T00:56:46;7.80;;;5.20;;
39176;SDS011;24904;52.208;21.192;2023-07-09T01:01:53;8.50;;;5.10;;
39176;SDS011;24904;52.208;21.192;2023-07-09T01:06:57;9.00;;;5.40;;
39176;SDS011;24904;52.208;21.192;2023-07-09T01:12:07;8.50;;;5.10;;
39176;SDS011;24904;52.208;21.192;2023-07-09T01:17:11;10.80;;;5.70;;
39176;SDS011;24904;52.208;21.192;2023-07-09T01:22:17;9.60;;;6.00;;
39176;SDS011;24904;52.208;21.192;2023-07-09T01:27:22;9.90;;;5.30;;
39176;SDS011;24904;52.208;21.192;2023-07-09T01:32:27;10.10;;;5.80;;
39176;SDS011;24904;52.208;21.192;2023-07-09T01:37:31;12.20;;;6.40;;
39176;SDS011;24904;52.208;21.192;2023-07-09T01:42:37;13.60;;;6.20;;
39176;SDS011;24904;52.208;21.192;2023-07-09T01:47:40;9.50;;;6.00;;
39176;SDS011;24904;52.208;21.192;2023-07-09T01:52:45;9.40;;;5.90;;
39176;SDS011;24904;52.208;21.192;2023-07-09T01:57:50;7.70;;;5.90;;
39176;SDS011;24904;52.208;21.192;2023-07-09T02:02:53;8.90;;;5.30;;
39176;SDS011;24904;52.208;21.192;2023-07-09T02:07:59;8.60;;;5.60;;
39176;SDS011;24904;52.208;21.192;2023-07-09T02:13:02;12.50;;;5.70;;
39176;SDS011;24904;52.208;21.192;2023-07-09T02:18:05;6.90;;;5.10;;
39176;SDS011;24904;52.208;21.192;2023-07-09T02:23:08;9.30;;;5.40;;
39176;SDS011;24904;52.208;21.192;2023-07-09T02:28:11;8.10;;;4.90;;
39176;SDS011;24904;52.208;21.192;2023-07-09T02:33:14;7.80;;;4.80;;
39176;SDS011;24904;52.208;21.192;2023-07-09T02:38:17;10.60;;;5.10;;
39176;SDS011;24904;52.208;21.192;2023-07-09T02:43:21;8.50;;;4.50;;
39176;SDS011;24904;52.208;21.192;2023-07-09T02:48:25;8.30;;;5.00;;
39176;SDS011;24904;52.208;21.192;2023-07-09T02:53:28;6.80;;;4.90;;
39176;SDS011;24904;52.208;21.192;2023-07-09T02:58:31;9.20;;;4.80;;
39176;SDS011;24904;52.208;21.192;2023-07-09T03:03:34;12.00;;;5.40;;
39176;SDS011;24904;52.208;21.192;2023-07-09T03:08:37;9.80;;;5.00;;
39176;SDS011;24904;52.208;21.192;2023-07-09T03:13:40;6.70;;;4.70;;
39176;SDS011;24904;52.208;21.192;2023-07-09T03:18:44;9.40;;;5.10;;
39176;SDS011;24904;52.208;21.192;2023-07-09T03:23:47;8.20;;;5.00;;
39176;SDS011;24904;52.208;21.192;2023-07-09T03:28:50;5.60;;;4.20;;
39176;SDS011;24904;52.208;21.192;2023-07-09T03:33:54;7.40;;;5.40;;
39176;SDS011;24904;52.208;21.192;2023-07-09T03:38:57;10.00;;;4.80;;
39176;SDS011;24904;52.208;21.192;2023-07-09T03:44:00;8.60;;;5.20;;
39176;SDS011;24904;52.208;21.192;2023-07-09T03:49:03;8.00;;;4.90;;
39176;SDS011;24904;52.208;21.192;2023-07-09T03:54:06;10.80;;;5.30;;
39176;SDS011;24904;52.208;21.192;2023-07-09T03:59:11;11.50;;;4.10;;
39176;SDS011;24904;52.208;21.192;2023-07-09T04:04:15;8.20;;;4.50;;
39176;SDS011;24904;52.208;21.192;2023-07-09T04:09:21;7.90;;;4.50;;
39176;SDS011;24904;52.208;21.192;2023-07-09T04:14:26;8.10;;;4.70;;
39176;SDS011;24904;52.208;21.192;2023-07-09T04:19:30;7.40;;;4.30;;
39176;SDS011;24904;52.208;21.192;2023-07-09T04:24:33;8.70;;;4.00;;
39176;SDS011;24904;52.208;21.192;2023-07-09T04:29:38;7.50;;;3.90;;
39176;SDS011;24904;52.208;21.192;2023-07-09T04:34:42;9.50;;;4.30;;
39176;SDS011;24904;52.208;21.192;2023-07-09T04:39:47;5.80;;;3.70;;
39176;SDS011;24904;52.208;21.192;2023-07-09T04:44:51;6.10;;;3.90;;
39176;SDS011;24904;52.208;21.192;2023-07-09T04:49:55;5.70;;;3.60;;
39176;SDS011;24904;52.208;21.192;2023-07-09T05:00:45;7.10;;;3.50;;
39176;SDS011;24904;52.208;21.192;2023-07-09T05:05:48;5.50;;;3.30;;
39176;SDS011;24904;52.208;21.192;2023-07-09T05:10:52;3.90;;;2.90;;
39176;SDS011;24904;52.208;21.192;2023-07-09T05:15:55;6.50;;;3.00;;
39176;SDS011;24904;52.208;21.192;2023-07-09T05:20:58;7.40;;;3.10;;
39176;SDS011;24904;52.208;21.192;2023-07-09T05:26:01;7.50;;;3.10;;
39176;SDS011;24904;52.208;21.192;2023-07-09T05:31:06;10.60;;;2.70;;
39176;SDS011;24904;52.208;21.192;2023-07-09T05:36:09;7.10;;;3.20;;
39176;SDS011;24904;52.208;21.192;2023-07-09T05:41:16;4.10;;;2.60;;
39176;SDS011;24904;52.208;21.192;2023-07-09T05:46:21;4.90;;;3.00;;
39176;SDS011;24904;52.208;21.192;2023-07-09T05:51:25;5.90;;;3.00;;
39176;SDS011;24904;52.208;21.192;2023-07-09T05:56:28;4.80;;;2.90;;
39176;SDS011;24904;52.208;21.192;2023-07-09T06:01:31;4.60;;;2.80;;
39176;SDS011;24904;52.208;21.192;2023-07-09T06:06:34;7.30;;;2.20;;
39176;SDS011;24904;52.208;21.192;2023-07-09T06:11:37;5.80;;;3.00;;
39176;SDS011;24904;52.208;21.192;2023-07-09T06:16:40;4.00;;;2.20;;
39176;SDS011;24904;52.208;21.192;2023-07-09T06:21:43;7.40;;;2.20;;
39176;SDS011;24904;52.208;21.192;2023-07-09T06:26:46;6.30;;;2.60;;
39176;SDS011;24904;52.208;21.192;2023-07-09T06:32:28;4.70;;;2.30;;
39176;SDS011;24904;52.208;21.192;2023-07-09T06:37:31;4.50;;;2.50;;
39176;SDS011;24904;52.208;21.192;2023-07-09T06:42:34;4.90;;;2.20;;
39176;SDS011;24904;52.208;21.192;2023-07-09T06:47:59;8.70;;;2.80;;
39176;SDS011;24904;52.208;21.192;2023-07-09T06:53:02;4.80;;;2.50;;
39176;SDS011;24904;52.208;21.192;2023-07-09T06:58:05;5.50;;;2.50;;
39176;SDS011;24904;52.208;21.192;2023-07-09T07:03:09;4.00;;;1.90;;
39176;SDS011;24904;52.208;21.192;2023-07-09T07:08:13;7.30;;;2.20;;
39176;SDS011;24904;52.208;21.192;2023-07-09T07:13:18;3.90;;;2.10;;
39176;SDS011;24904;52.208;21.192;2023-07-09T07:18:22;4.80;;;2.00;;
39176;SDS011;24904;52.208;21.192;2023-07-09T07:23:25;6.30;;;2.10;;
39176;SDS011;24904;52.208;21.192;2023-07-09T07:28:28;4.40;;;1.90;;
39176;SDS011;24904;52.208;21.192;2023-07-09T07:33:31;5.70;;;1.90;;
39176;SDS011;24904;52.208;21.192;2023-07-09T07:38:34;3.70;;;1.50;;
39176;SDS011;24904;52.208;21.192;2023-07-09T07:43:37;4.90;;;1.80;;
39176;SDS011;24904;52.208;21.192;2023-07-09T07:48:40;5.60;;;2.10;;
39176;SDS011;24904;52.208;21.192;2023-07-09T07:53:43;6.10;;;2.10;;
39176;SDS011;24904;52.208;21.192;2023-07-09T07:58:46;3.50;;;2.10;;
39176;SDS011;24904;52.208;21.192;2023-07-09T08:03:49;4.00;;;1.90;;
39176;SDS011;24904;52.208;21.192;2023-07-09T08:08:52;2.40;;;1.60;;
39176;SDS011;24904;52.208;21.192;2023-07-09T08:13:55;3.80;;;1.80;;
39176;SDS011;24904;52.208;21.192;2023-07-09T08:18:58;6.20;;;1.80;;
39176;SDS011;24904;52.208;21.192;2023-07-09T08:24:01;7.40;;;2.00;;
39176;SDS011;24904;52.208;21.192;2023-07-09T08:29:04;8.70;;;1.70;;
39176;SDS011;24904;52.208;21.192;2023-07-09T08:34:07;4.40;;;1.30;;
39176;SDS011;24904;52.208;21.192;2023-07-09T08:39:10;3.60;;;1.70;;
39176;SDS011;24904;52.208;21.192;2023-07-09T08:44:17;3.20;;;1.70;;
39176;SDS011;24904;52.208;21.192;2023-07-09T08:49:38;1.90;;;1.30;;
39176;SDS011;24904;52.208;21.192;2023-07-09T08:54:46;4.60;;;1.40;;
39176;SDS011;24904;52.208;21.192;2023-07-09T08:59:53;3.30;;;1.30;;
39176;SDS011;24904;52.208;21.192;2023-07-09T09:04:59;3.50;;;1.50;;
39176;SDS011;24904;52.208;21.192;2023-07-09T09:10:05;3.90;;;1.80;;
39176;SDS011;24904;52.208;21.192;2023-07-09T09:15:17;5.40;;;1.30;;
39176;SDS011;24904;52.208;21.192;2023-07-09T09:20:22;3.80;;;1.60;;
39176;SDS011;24904;52.208;21.192;2023-07-09T09:25:27;2.50;;;1.20;;
39176;SDS011;24904;52.208;21.192;2023-07-09T09:30:31;2.50;;;1.40;;
39176;SDS011;24904;52.208;21.192;2023-07-09T09:35:35;3.80;;;1.60;;
39176;SDS011;24904;52.208;21.192;2023-07-09T09:40:39;2.10;;;1.10;;
39176;SDS011;24904;52.208;21.192;2023-07-09T09:45:43;2.60;;;1.00;;
39176;SDS011;24904;52.208;21.192;2023-07-09T09:50:48;3.20;;;1.10;;
39176;SDS011;24904;52.208;21.192;2023-07-09T09:55:53;2.30;;;1.10;;
39176;SDS011;24904;52.208;21.192;2023-07-09T10:00:57;1.50;;;0.90;;
39176;SDS011;24904;52.208;21.192;2023-07-09T10:06:03;0.90;;;0.70;;
39176;SDS011;24904;52.208;21.192;2023-07-09T10:11:16;2.60;;;1.00;;
39176;SDS011;24904;52.208;21.192;2023-07-09T10:16:29;2.40;;;1.10;;
39176;SDS011;24904;52.208;21.192;2023-07-09T10:21:40;5.60;;;1.60;;
39176;SDS011;24904;52.208;21.192;2023-07-09T10:26:48;3.20;;;1.40;;
39176;SDS011;24904;52.208;21.192;2023-07-09T10:32:01;2.90;;;1.40;;
39176;SDS011;24904;52.208;21.192;2023-07-09T10:42:42;2.20;;;1.20;;
39176;SDS011;24904;52.208;21.192;2023-07-09T10:47:48;7.00;;;1.60;;
39176;SDS011;24904;52.208;21.192;2023-07-09T10:52:56;2.40;;;1.30;;
39176;SDS011;24904;52.208;21.192;2023-07-09T10:58:04;7.20;;;1.20;;
39176;SDS011;24904;52.208;21.192;2023-07-09T11:03:17;2.90;;;1.50;;
39176;SDS011;24904;52.208;21.192;2023-07-09T11:08:24;1.90;;;1.20;;
39176;SDS011;24904;52.208;21.192;2023-07-09T11:13:33;1.90;;;1.20;;
39176;SDS011;24904;52.208;21.192;2023-07-09T11:32:18;3.90;;;1.70;;
39176;SDS011;24904;52.208;21.192;2023-07-09T11:37:25;1.00;;;0.70;;
39176;SDS011;24904;52.208;21.192;2023-07-09T11:42:30;1.50;;;1.10;;
39176;SDS011;24904;52.208;21.192;2023-07-09T11:47:37;2.20;;;1.10;;
39176;SDS011;24904;52.208;21.192;2023-07-09T11:52:43;3.10;;;1.20;;
39176;SDS011;24904;52.208;21.192;2023-07-09T11:57:53;1.60;;;0.90;;
39176;SDS011;24904;52.208;21.192;2023-07-09T12:02:56;1.90;;;0.90;;
39176;SDS011;24904;52.208;21.192;2023-07-09T12:07:59;3.60;;;1.40;;
39176;SDS011;24904;52.208;21.192;2023-07-09T12:13:03;2.40;;;1.30;;
39176;SDS011;24904;52.208;21.192;2023-07-09T12:18:09;1.80;;;1.20;;
39176;SDS011;24904;52.208;21.192;2023-07-09T12:23:17;1.90;;;1.20;;
39176;SDS011;24904;52.208;21.192;2023-07-09T12:28:26;1.50;;;1.00;;
39176;SDS011;24904;52.208;21.192;2023-07-09T12:33:30;1.40;;;1.00;;
39176;SDS011;24904;52.208;21.192;2023-07-09T12:38:38;1.50;;;0.90;;
39176;SDS011;24904;52.208;21.192;2023-07-09T12:43:44;1.90;;;1.20;;
39176;SDS011;24904;52.208;21.192;2023-07-09T12:48:47;2.10;;;1.30;;
39176;SDS011;24904;52.208;21.192;2023-07-09T12:54:00;2.80;;;1.10;;
39176;SDS011;24904;52.208;21.192;2023-07-09T12:59:12;2.10;;;1.10;;
39176;SDS011;24904;52.208;21.192;2023-07-09T13:04:19;1.40;;;1.00;;
39176;SDS011;24904;52.208;21.192;2023-07-09T13:10:06;3.40;;;1.90;;
39176;SDS011;24904;52.208;21.192;2023-07-09T13:15:23;4.70;;;1.30;;
39176;SDS011;24904;52.208;21.192;2023-07-09T13:20:28;5.10;;;2.20;;
39176;SDS011;24904;52.208;21.192;2023-07-09T13:25:33;5.70;;;1.50;;
39176;SDS011;24904;52.208;21.192;2023-07-09T13:30:36;5.80;;;1.50;;
39176;SDS011;24904;52.208;21.192;2023-07-09T13:35:39;2.10;;;1.40;;
39176;SDS011;24904;52.208;21.192;2023-07-09T13:40:43;1.70;;;1.10;;
39176;SDS011;24904;52.208;21.192;2023-07-09T13:45:48;2.20;;;1.30;;
39176;SDS011;24904;52.208;21.192;2023-07-09T13:50:51;5.00;;;1.40;;
39176;SDS011;24904;52.208;21.192;2023-07-09T13:55:55;2.10;;;1.30;;
39176;SDS011;24904;52.208;21.192;2023-07-09T14:00:59;2.60;;;1.10;;
39176;SDS011;24904;52.208;21.192;2023-07-09T14:06:12;2.40;;;1.60;;
39176;SDS011;24904;52.208;21.192;2023-07-09T14:11:16;3.40;;;1.20;;
39176;SDS011;24904;52.208;21.192;2023-07-09T14:16:19;2.40;;;1.70;;
39176;SDS011;24904;52.208;21.192;2023-07-09T14:21:23;2.60;;;1.30;;
39176;SDS011;24904;52.208;21.192;2023-07-09T14:26:27;7.10;;;1.40;;
39176;SDS011;24904;52.208;21.192;2023-07-09T14:31:31;3.50;;;1.60;;
39176;SDS011;24904;52.208;21.192;2023-07-09T14:36:35;4.20;;;1.20;;
39176;SDS011;24904;52.208;21.192;2023-07-09T14:41:39;2.70;;;1.10;;
39176;SDS011;24904;52.208;21.192;2023-07-09T14:46:43;6.20;;;1.60;;
39176;SDS011;24904;52.208;21.192;2023-07-09T14:51:47;5.50;;;2.10;;
39176;SDS011;24904;52.208;21.192;2023-07-09T15:04:33;3.10;;;1.90;;
39176;SDS011;24904;52.208;21.192;2023-07-09T15:09:36;4.70;;;1.50;;
39176;SDS011;24904;52.208;21.192;2023-07-09T15:14:39;2.60;;;1.40;;
39176;SDS011;24904;52.208;21.192;2023-07-09T15:19:43;4.30;;;1.50;;
39176;SDS011;24904;52.208;21.192;2023-07-09T15:24:46;5.60;;;1.80;;
39176;SDS011;24904;52.208;21.192;2023-07-09T15:29:49;4.40;;;1.50;;
39176;SDS011;24904;52.208;21.192;2023-07-09T15:34:52;5.70;;;1.70;;
39176;SDS011;24904;52.208;21.192;2023-07-09T15:39:55;2.10;;;1.50;;
39176;SDS011;24904;52.208;21.192;2023-07-09T15:44:59;1.70;;;1.30;;
39176;SDS011;24904;52.208;21.192;2023-07-09T15:50:04;2.50;;;1.50;;
39176;SDS011;24904;52.208;21.192;2023-07-09T15:55:15;3.60;;;1.30;;
39176;SDS011;24904;52.208;21.192;2023-07-09T16:00:20;2.70;;;1.30;;
39176;SDS011;24904;52.208;21.192;2023-07-09T16:05:26;2.40;;;1.70;;
39176;SDS011;24904;52.208;21.192;2023-07-09T16:10:31;7.60;;;1.40;;
39176;SDS011;24904;52.208;21.192;2023-07-09T16:15:34;2.20;;;1.50;;
39176;SDS011;24904;52.208;21.192;2023-07-09T16:20:37;1.60;;;1.20;;
39176;SDS011;24904;52.208;21.192;2023-07-09T16:25:40;6.20;;;2.00;;
39176;SDS011;24904;52.208;21.192;2023-07-09T16:30:44;4.40;;;1.20;;
39176;SDS011;24904;52.208;21.192;2023-07-09T16:35:47;2.20;;;1.30;;
39176;SDS011;24904;52.208;21.192;2023-07-09T16:40:53;2.20;;;1.60;;
39176;SDS011;24904;52.208;21.192;2023-07-09T16:45:56;6.20;;;1.60;;
39176;SDS011;24904;52.208;21.192;2023-07-09T16:50:59;2.50;;;1.40;;
39176;SDS011;24904;52.208;21.192;2023-07-09T16:56:02;2.00;;;1.20;;
39176;SDS011;24904;52.208;21.192;2023-07-09T17:01:05;7.80;;;1.60;;
39176;SDS011;24904;52.208;21.192;2023-07-09T17:06:09;2.00;;;1.50;;
39176;SDS011;24904;52.208;21.192;2023-07-09T17:11:12;5.10;;;1.50;;
39176;SDS011;24904;52.208;21.192;2023-07-09T17:16:15;2.40;;;1.10;;
39176;SDS011;24904;52.208;21.192;2023-07-09T17:21:18;5.00;;;1.20;;
39176;SDS011;24904;52.208;21.192;2023-07-09T17:26:21;3.00;;;1.20;;
39176;SDS011;24904;52.208;21.192;2023-07-09T17:31:24;2.60;;;1.40;;
39176;SDS011;24904;52.208;21.192;2023-07-09T17:36:34;3.00;;;1.40;;
39176;SDS011;24904;52.208;21.192;2023-07-09T17:41:38;11.10;;;1.70;;
39176;SDS011;24904;52.208;21.192;2023-07-09T17:46:41;1.90;;;1.10;;
39176;SDS011;24904;52.208;21.192;2023-07-09T17:51:44;2.40;;;1.10;;
39176;SDS011;24904;52.208;21.192;2023-07-09T17:56:47;6.20;;;1.50;;
39176;SDS011;24904;52.208;21.192;2023-07-09T18:01:54;2.60;;;1.40;;
39176;SDS011;24904;52.208;21.192;2023-07-09T18:07:08;2.20;;;1.40;;
39176;SDS011;24904;52.208;21.192;2023-07-09T18:12:19;2.80;;;1.50;;
39176;SDS011;24904;52.208;21.192;2023-07-09T18:17:26;4.20;;;2.20;;
39176;SDS011;24904;52.208;21.192;2023-07-09T18:22:32;3.50;;;1.50;;
39176;SDS011;24904;52.208;21.192;2023-07-09T18:27:36;2.90;;;1.60;;
39176;SDS011;24904;52.208;21.192;2023-07-09T18:32:41;3.70;;;2.20;;
39176;SDS011;24904;52.208;21.192;2023-07-09T18:37:44;2.60;;;1.60;;
39176;SDS011;24904;52.208;21.192;2023-07-09T18:42:48;2.90;;;1.90;;
39176;SDS011;24904;52.208;21.192;2023-07-09T18:47:51;4.40;;;2.10;;
39176;SDS011;24904;52.208;21.192;2023-07-09T18:52:55;4.60;;;2.50;;
39176;SDS011;24904;52.208;21.192;2023-07-09T18:58:00;2.90;;;1.90;;
39176;SDS011;24904;52.208;21.192;2023-07-09T19:03:04;3.00;;;1.90;;
39176;SDS011;24904;52.208;21.192;2023-07-09T19:08:18;3.80;;;2.30;;
39176;SDS011;24904;52.208;21.192;2023-07-09T19:13:23;3.30;;;1.90;;
39176;SDS011;24904;52.208;21.192;2023-07-09T19:18:27;3.30;;;2.30;;
39176;SDS011;24904;52.208;21.192;2023-07-09T19:23:34;7.60;;;2.60;;
39176;SDS011;24904;52.208;21.192;2023-07-09T19:28:37;3.90;;;2.80;;
39176;SDS011;24904;52.208;21.192;2023-07-09T19:33:40;4.90;;;2.50;;
39176;SDS011;24904;52.208;21.192;2023-07-09T19:38:43;4.80;;;3.20;;
39176;SDS011;24904;52.208;21.192;2023-07-09T19:43:46;5.30;;;3.80;;
39176;SDS011;24904;52.208;21.192;2023-07-09T19:48:49;6.20;;;3.70;;
39176;SDS011;24904;52.208;21.192;2023-07-09T19:53:52;6.70;;;3.80;;
39176;SDS011;24904;52.208;21.192;2023-07-09T19:58:55;6.60;;;4.10;;
39176;SDS011;24904;52.208;21.192;2023-07-09T20:03:58;9.30;;;6.10;;
39176;SDS011;24904;52.208;21.192;2023-07-09T20:09:02;21.60;;;15.10;;
39176;SDS011;24904;52.208;21.192;2023-07-09T20:14:16;24.50;;;17.10;;
39176;SDS011;24904;52.208;21.192;2023-07-09T20:19:21;36.30;;;21.30;;
39176;SDS011;24904;52.208;21.192;2023-07-09T20:24:24;29.90;;;17.60;;
39176;SDS011;24904;52.208;21.192;2023-07-09T20:29:28;30.80;;;21.60;;
39176;SDS011;24904;52.208;21.192;2023-07-09T20:34:31;31.10;;;22.70;;
39176;SDS011;24904;52.208;21.192;2023-07-09T20:39:34;33.20;;;22.60;;
39176;SDS011;24904;52.208;21.192;2023-07-09T20:44:37;33.80;;;21.80;;
39176;SDS011;24904;52.208;21.192;2023-07-09T20:49:41;22.80;;;14.80;;
39176;SDS011;24904;52.208;21.192;2023-07-09T20:54:44;20.30;;;13.90;;
39176;SDS011;24904;52.208;21.192;2023-07-09T20:59:47;15.50;;;7.80;;
39176;SDS011;24904;52.208;21.192;2023-07-09T21:04:50;6.90;;;4.70;;
39176;SDS011;24904;52.208;21.192;2023-07-09T21:09:55;14.00;;;5.30;;
39176;SDS011;24904;52.208;21.192;2023-07-09T21:14:58;15.50;;;5.30;;
39176;SDS011;24904;52.208;21.192;2023-07-09T21:20:01;9.40;;;4.50;;
39176;SDS011;24904;52.208;21.192;2023-07-09T21:25:14;8.80;;;4.20;;
39176;SDS011;24904;52.208;21.192;2023-07-09T21:30:20;8.50;;;3.90;;
39176;SDS011;24904;52.208;21.192;2023-07-09T21:35:24;5.50;;;3.50;;
39176;SDS011;24904;52.208;21.192;2023-07-09T21:40:29;18.50;;;4.20;;
39176;SDS011;24904;52.208;21.192;2023-07-09T21:45:34;6.20;;;3.70;;
39176;SDS011;24904;52.208;21.192;2023-07-09T21:50:39;5.90;;;4.00;;
39176;SDS011;24904;52.208;21.192;2023-07-09T21:55:42;6.10;;;4.20;;
39176;SDS011;24904;52.208;21.192;2023-07-09T22:00:45;7.10;;;3.90;;
39176;SDS011;24904;52.208;21.192;2023-07-09T22:05:49;6.00;;;3.80;;
39176;SDS011;24904;52.208;21.192;2023-07-09T22:10:52;5.90;;;4.00;;
39176;SDS011;24904;52.208;21.192;2023-07-09T22:15:55;8.80;;;4.50;;
39176;SDS011;24904;52.208;21.192;2023-07-09T22:21:00;12.00;;;5.10;;
39176;SDS011;24904;52.208;21.192;2023-07-09T22:26:03;6.40;;;4.30;;
39176;SDS011;24904;52.208;21.192;2023-07-09T22:31:08;6.70;;;3.80;;
39176;SDS011;24904;52.208;21.192;2023-07-09T22:36:14;8.30;;;3.70;;
39176;SDS011;24904;52.208;21.192;2023-07-09T22:41:17;6.30;;;3.60;;
39176;SDS011;24904;52.208;21.192;2023-07-09T22:46:20;8.70;;;3.50;;
39176;SDS011;24904;52.208;21.192;2023-07-09T22:51:24;7.90;;;3.20;;
39176;SDS011;24904;52.208;21.192;2023-07-09T22:56:27;5.30;;;3.50;;
39176;SDS011;24904;52.208;21.192;2023-07-09T23:01:30;5.20;;;3.40;;
39176;SDS011;24904;52.208;21.192;2023-07-09T23:15:14;8.80;;;4.10;;
39176;SDS011;24904;52.208;21.192;2023-07-09T23:20:21;7.80;;;3.60;;
39176;SDS011;24904;52.208;21.192;2023-07-09T23:25:24;7.00;;;3.50;;
39176;SDS011;24904;52.208;21.192;2023-07-09T23:30:28;9.90;;;4.00;;
39176;SDS011;24904;52.208;21.192;2023-07-09T23:35:34;9.00;;;4.00;;
39176;SDS011;24904;52.208;21.192;2023-07-09T23:40:37;4.70;;;3.40;;
39176;SDS011;24904;52.208;21.192;2023-07-09T23:45:40;8.00;;;3.70;;
39176;SDS011;24904;52.208;21.192;2023-07-09T23:50:44;5.20;;;3.40;;
39176;SDS011;24904;52.208;21.192;2023-07-09T23:55:47;7.60;;;4.10;;
